sensor_id;sensor_type;location;lat;lon;timestamp;temperature;humidity
10278;DHT22;5184;51.376;7.148;2023-04-25T00:01:25;6.10;1.00
10278;DHT22;5184;51.376;7.148;2023-04-25T00:03:52;6.10;1.00
10278;DHT22;5184;51.376;7.148;2023-04-25T00:06:18;6.10;1.00
10278;DHT22;5184;51.376;7.148;2023-04-25T00:08:45;6.10;99.90
10278;DHT22;5184;51.376;7.148;2023-04-25T00:11:11;6.10;1.00
10278;DHT22;5184;51.376;7.148;2023-04-25T00:13:39;6.10;1.00
10278;DHT22;5184;51.376;7.148;2023-04-25T00:16:06;6.10;99.90
10278;DHT22;5184;51.376;7.148;2023-04-25T00:18:33;6.20;99.90
10278;DHT22;5184;51.376;7.148;2023-04-25T00:21:01;6.20;62.80
10278;DHT22;5184;51.376;7.148;2023-04-25T00:23:27;6.20;52.40
10278;DHT22;5184;51.376;7.148;2023-04-25T00:25:55;6.20;99.90
10278;DHT22;5184;51.376;7.148;2023-04-25T00:28:23;6.20;49.40
10278;DHT22;5184;51.376;7.148;2023-04-25T00:30:50;6.20;1.00
10278;DHT22;5184;51.376;7.148;2023-04-25T00:33:17;6.20;99.90
10278;DHT22;5184;51.376;7.148;2023-04-25T00:35:45;6.20;1.00
10278;DHT22;5184;51.376;7.148;2023-04-25T00:38:12;6.20;1.00
10278;DHT22;5184;51.376;7.148;2023-04-25T00:40:40;6.20;1.00
10278;DHT22;5184;51.376;7.148;2023-04-25T00:43:07;6.20;1.00
10278;DHT22;5184;51.376;7.148;2023-04-25T00:45:33;6.20;1.00
10278;DHT22;5184;51.376;7.148;2023-04-25T00:48:00;6.20;1.00
10278;DHT22;5184;51.376;7.148;2023-04-25T00:50:27;6.20;1.00
10278;DHT22;5184;51.376;7.148;2023-04-25T00:52:53;6.20;1.00
10278;DHT22;5184;51.376;7.148;2023-04-25T00:55:20;6.20;99.90
10278;DHT22;5184;51.376;7.148;2023-04-25T00:57:46;6.20;99.90
10278;DHT22;5184;51.376;7.148;2023-04-25T01:00:13;6.20;99.90
10278;DHT22;5184;51.376;7.148;2023-04-25T01:02:40;6.20;99.90
10278;DHT22;5184;51.376;7.148;2023-04-25T01:05:07;6.30;99.90
10278;DHT22;5184;51.376;7.148;2023-04-25T01:07:34;6.20;99.90
10278;DHT22;5184;51.376;7.148;2023-04-25T01:10:01;6.20;99.90
10278;DHT22;5184;51.376;7.148;2023-04-25T01:12:28;6.20;99.90
10278;DHT22;5184;51.376;7.148;2023-04-25T01:14:55;6.20;99.90
10278;DHT22;5184;51.376;7.148;2023-04-25T01:17:23;6.20;1.00
10278;DHT22;5184;51.376;7.148;2023-04-25T01:19:50;6.20;99.90
10278;DHT22;5184;51.376;7.148;2023-04-25T01:22:17;6.30;99.90
10278;DHT22;5184;51.376;7.148;2023-04-25T01:24:44;6.30;99.90
10278;DHT22;5184;51.376;7.148;2023-04-25T01:27:11;6.30;99.90
10278;DHT22;5184;51.376;7.148;2023-04-25T01:29:37;6.20;1.00
10278;DHT22;5184;51.376;7.148;2023-04-25T01:32:05;6.20;99.90
10278;DHT22;5184;51.376;7.148;2023-04-25T01:34:31;6.20;1.00
10278;DHT22;5184;51.376;7.148;2023-04-25T01:36:59;6.20;2.30
10278;DHT22;5184;51.376;7.148;2023-04-25T01:39:25;6.20;4.10
10278;DHT22;5184;51.376;7.148;2023-04-25T01:41:52;6.20;1.00
10278;DHT22;5184;51.376;7.148;2023-04-25T01:44:18;6.20;1.40
10278;DHT22;5184;51.376;7.148;2023-04-25T01:46:46;6.20;99.90
10278;DHT22;5184;51.376;7.148;2023-04-25T01:49:13;6.20;99.90
10278;DHT22;5184;51.376;7.148;2023-04-25T01:51:40;6.20;44.30
10278;DHT22;5184;51.376;7.148;2023-04-25T01:54:07;6.20;40.10
10278;DHT22;5184;51.376;7.148;2023-04-25T01:56:36;6.20;99.90
10278;DHT22;5184;51.376;7.148;2023-04-25T01:59:00;6.20;99.90
10278;DHT22;5184;51.376;7.148;2023-04-25T02:01:28;6.20;1.00
10278;DHT22;5184;51.376;7.148;2023-04-25T02:03:55;6.40;1.00
10278;DHT22;5184;51.376;7.148;2023-04-25T02:06:22;6.20;1.00
10278;DHT22;5184;51.376;7.148;2023-04-25T02:08:50;6.10;1.00
10278;DHT22;5184;51.376;7.148;2023-04-25T02:11:17;6.10;1.00
10278;DHT22;5184;51.376;7.148;2023-04-25T02:13:44;6.10;1.00
10278;DHT22;5184;51.376;7.148;2023-04-25T02:16:12;6.20;52.30
10278;DHT22;5184;51.376;7.148;2023-04-25T02:18:39;6.20;68.70
10278;DHT22;5184;51.376;7.148;2023-04-25T02:21:06;6.20;65.80
10278;DHT22;5184;51.376;7.148;2023-04-25T02:23:32;6.20;1.00
10278;DHT22;5184;51.376;7.148;2023-04-25T02:25:59;6.20;1.00
10278;DHT22;5184;51.376;7.148;2023-04-25T02:28:25;6.20;1.00
10278;DHT22;5184;51.376;7.148;2023-04-25T02:30:52;6.10;1.00
10278;DHT22;5184;51.376;7.148;2023-04-25T02:33:19;6.10;99.90
10278;DHT22;5184;51.376;7.148;2023-04-25T02:35:46;6.10;99.90
10278;DHT22;5184;51.376;7.148;2023-04-25T02:38:13;6.10;99.90
10278;DHT22;5184;51.376;7.148;2023-04-25T02:40:41;6.10;99.90
10278;DHT22;5184;51.376;7.148;2023-04-25T02:43:08;6.10;99.90
10278;DHT22;5184;51.376;7.148;2023-04-25T02:45:35;6.10;99.90
10278;DHT22;5184;51.376;7.148;2023-04-25T02:48:02;6.10;99.90
10278;DHT22;5184;51.376;7.148;2023-04-25T02:50:28;6.00;99.90
10278;DHT22;5184;51.376;7.148;2023-04-25T02:52:54;6.00;99.90
10278;DHT22;5184;51.376;7.148;2023-04-25T02:55:21;6.00;99.90
10278;DHT22;5184;51.376;7.148;2023-04-25T02:57:48;6.00;99.90
10278;DHT22;5184;51.376;7.148;2023-04-25T03:00:15;6.00;99.90
10278;DHT22;5184;51.376;7.148;2023-04-25T03:02:42;6.10;99.90
10278;DHT22;5184;51.376;7.148;2023-04-25T03:05:08;6.10;99.90
10278;DHT22;5184;51.376;7.148;2023-04-25T03:07:35;6.10;99.90
10278;DHT22;5184;51.376;7.148;2023-04-25T03:10:01;6.00;99.90
10278;DHT22;5184;51.376;7.148;2023-04-25T03:12:28;6.00;1.00
10278;DHT22;5184;51.376;7.148;2023-04-25T03:14:55;6.00;1.00
10278;DHT22;5184;51.376;7.148;2023-04-25T03:17:21;6.00;1.00
10278;DHT22;5184;51.376;7.148;2023-04-25T03:19:48;6.00;1.00
10278;DHT22;5184;51.376;7.148;2023-04-25T03:22:15;5.90;99.90
10278;DHT22;5184;51.376;7.148;2023-04-25T03:24:42;5.80;99.90
10278;DHT22;5184;51.376;7.148;2023-04-25T03:27:10;5.70;99.90
10278;DHT22;5184;51.376;7.148;2023-04-25T03:29:37;5.70;99.90
10278;DHT22;5184;51.376;7.148;2023-04-25T03:32:04;5.70;99.90
10278;DHT22;5184;51.376;7.148;2023-04-25T03:34:31;5.70;99.90
10278;DHT22;5184;51.376;7.148;2023-04-25T03:36:59;5.70;99.90
10278;DHT22;5184;51.376;7.148;2023-04-25T03:39:26;5.70;99.90
10278;DHT22;5184;51.376;7.148;2023-04-25T03:41:53;5.70;99.90
10278;DHT22;5184;51.376;7.148;2023-04-25T03:44:21;5.70;99.90
10278;DHT22;5184;51.376;7.148;2023-04-25T03:46:47;5.70;99.90
10278;DHT22;5184;51.376;7.148;2023-04-25T03:49:16;5.70;99.90
10278;DHT22;5184;51.376;7.148;2023-04-25T03:51:42;5.70;99.90
10278;DHT22;5184;51.376;7.148;2023-04-25T03:54:08;5.80;99.90
10278;DHT22;5184;51.376;7.148;2023-04-25T03:56:35;5.80;99.90
10278;DHT22;5184;51.376;7.148;2023-04-25T03:59:02;5.80;99.90
10278;DHT22;5184;51.376;7.148;2023-04-25T04:01:28;5.80;99.90
10278;DHT22;5184;51.376;7.148;2023-04-25T04:03:56;5.80;99.90
10278;DHT22;5184;51.376;7.148;2023-04-25T04:06:23;5.80;99.90
10278;DHT22;5184;51.376;7.148;2023-04-25T04:08:50;5.80;99.90
10278;DHT22;5184;51.376;7.148;2023-04-25T04:11:16;5.80;99.90
10278;DHT22;5184;51.376;7.148;2023-04-25T04:13:43;5.80;99.90
10278;DHT22;5184;51.376;7.148;2023-04-25T04:16:10;5.90;99.90
10278;DHT22;5184;51.376;7.148;2023-04-25T04:18:38;5.80;99.90
10278;DHT22;5184;51.376;7.148;2023-04-25T04:21:05;5.80;99.90
10278;DHT22;5184;51.376;7.148;2023-04-25T04:23:32;5.90;99.90
10278;DHT22;5184;51.376;7.148;2023-04-25T04:26:00;5.90;99.90
10278;DHT22;5184;51.376;7.148;2023-04-25T04:28:26;5.90;99.90
10278;DHT22;5184;51.376;7.148;2023-04-25T04:30:53;5.90;99.90
10278;DHT22;5184;51.376;7.148;2023-04-25T04:33:19;5.90;99.90
10278;DHT22;5184;51.376;7.148;2023-04-25T04:35:47;5.90;99.90
10278;DHT22;5184;51.376;7.148;2023-04-25T04:38:14;5.90;99.90
10278;DHT22;5184;51.376;7.148;2023-04-25T04:40:41;5.80;99.90
10278;DHT22;5184;51.376;7.148;2023-04-25T04:43:07;6.00;99.90
10278;DHT22;5184;51.376;7.148;2023-04-25T04:45:34;5.90;99.90
10278;DHT22;5184;51.376;7.148;2023-04-25T04:48:00;5.90;99.90
10278;DHT22;5184;51.376;7.148;2023-04-25T04:50:27;5.80;99.90
10278;DHT22;5184;51.376;7.148;2023-04-25T04:52:54;5.30;99.90
10278;DHT22;5184;51.376;7.148;2023-04-25T04:55:20;5.70;99.90
10278;DHT22;5184;51.376;7.148;2023-04-25T04:57:47;5.70;99.90
10278;DHT22;5184;51.376;7.148;2023-04-25T05:00:15;5.70;99.90
10278;DHT22;5184;51.376;7.148;2023-04-25T05:02:41;5.70;99.90
10278;DHT22;5184;51.376;7.148;2023-04-25T05:05:08;5.80;99.90
10278;DHT22;5184;51.376;7.148;2023-04-25T05:07:34;5.90;99.90
10278;DHT22;5184;51.376;7.148;2023-04-25T05:10:02;6.00;99.90
10278;DHT22;5184;51.376;7.148;2023-04-25T05:12:28;6.00;99.90
10278;DHT22;5184;51.376;7.148;2023-04-25T05:14:55;6.00;99.90
10278;DHT22;5184;51.376;7.148;2023-04-25T05:17:22;6.10;99.90
10278;DHT22;5184;51.376;7.148;2023-04-25T05:19:48;6.10;99.90
10278;DHT22;5184;51.376;7.148;2023-04-25T05:22:15;6.10;99.90
10278;DHT22;5184;51.376;7.148;2023-04-25T05:24:41;6.10;99.90
10278;DHT22;5184;51.376;7.148;2023-04-25T05:27:09;6.50;99.90
10278;DHT22;5184;51.376;7.148;2023-04-25T05:29:36;6.20;99.90
10278;DHT22;5184;51.376;7.148;2023-04-25T05:32:04;6.20;12.20
10278;DHT22;5184;51.376;7.148;2023-04-25T05:34:30;6.20;10.80
10278;DHT22;5184;51.376;7.148;2023-04-25T05:36:57;6.20;1.00
10278;DHT22;5184;51.376;7.148;2023-04-25T05:39:24;6.10;1.00
10278;DHT22;5184;51.376;7.148;2023-04-25T05:41:51;6.00;1.00
10278;DHT22;5184;51.376;7.148;2023-04-25T05:44:18;6.00;1.00
10278;DHT22;5184;51.376;7.148;2023-04-25T05:46:45;5.90;7.30
10278;DHT22;5184;51.376;7.148;2023-04-25T05:49:12;5.90;44.90
10278;DHT22;5184;51.376;7.148;2023-04-25T05:51:39;5.90;1.00
10278;DHT22;5184;51.376;7.148;2023-04-25T05:54:07;6.10;1.00
10278;DHT22;5184;51.376;7.148;2023-04-25T05:56:34;6.10;1.00
10278;DHT22;5184;51.376;7.148;2023-04-25T05:59:01;6.20;1.00
10278;DHT22;5184;51.376;7.148;2023-04-25T06:01:29;6.20;1.00
10278;DHT22;5184;51.376;7.148;2023-04-25T06:03:56;6.30;1.00
10278;DHT22;5184;51.376;7.148;2023-04-25T06:06:23;6.30;1.00
10278;DHT22;5184;51.376;7.148;2023-04-25T06:08:51;6.50;1.00
10278;DHT22;5184;51.376;7.148;2023-04-25T06:11:18;6.50;99.90
10278;DHT22;5184;51.376;7.148;2023-04-25T06:13:45;6.50;99.90
10278;DHT22;5184;51.376;7.148;2023-04-25T06:16:11;6.40;99.90
10278;DHT22;5184;51.376;7.148;2023-04-25T06:18:38;6.50;1.00
10278;DHT22;5184;51.376;7.148;2023-04-25T06:21:04;6.60;99.90
10278;DHT22;5184;51.376;7.148;2023-04-25T06:23:31;6.60;99.90
10278;DHT22;5184;51.376;7.148;2023-04-25T06:25:58;6.70;99.90
10278;DHT22;5184;51.376;7.148;2023-04-25T06:28:26;6.80;1.00
10278;DHT22;5184;51.376;7.148;2023-04-25T06:30:53;6.80;1.00
10278;DHT22;5184;51.376;7.148;2023-04-25T06:33:21;6.80;99.90
10278;DHT22;5184;51.376;7.148;2023-04-25T06:35:48;6.80;99.90
10278;DHT22;5184;51.376;7.148;2023-04-25T06:38:15;6.70;99.90
10278;DHT22;5184;51.376;7.148;2023-04-25T06:40:41;6.80;99.90
10278;DHT22;5184;51.376;7.148;2023-04-25T06:43:08;6.80;99.90
10278;DHT22;5184;51.376;7.148;2023-04-25T06:45:34;6.80;99.90
10278;DHT22;5184;51.376;7.148;2023-04-25T06:48:01;6.80;1.00
10278;DHT22;5184;51.376;7.148;2023-04-25T06:50:28;6.80;1.00
10278;DHT22;5184;51.376;7.148;2023-04-25T06:52:56;6.70;1.00
10278;DHT22;5184;51.376;7.148;2023-04-25T06:55:23;6.70;1.00
10278;DHT22;5184;51.376;7.148;2023-04-25T06:57:50;6.70;1.00
10278;DHT22;5184;51.376;7.148;2023-04-25T07:00:18;6.80;99.90
10278;DHT22;5184;51.376;7.148;2023-04-25T07:02:45;7.00;1.00
10278;DHT22;5184;51.376;7.148;2023-04-25T07:05:13;7.20;99.90
10278;DHT22;5184;51.376;7.148;2023-04-25T07:07:39;7.10;99.90
10278;DHT22;5184;51.376;7.148;2023-04-25T07:10:06;7.30;1.00
10278;DHT22;5184;51.376;7.148;2023-04-25T07:12:33;7.40;99.90
10278;DHT22;5184;51.376;7.148;2023-04-25T07:14:59;7.40;99.90
10278;DHT22;5184;51.376;7.148;2023-04-25T07:17:26;7.30;1.00
10278;DHT22;5184;51.376;7.148;2023-04-25T07:19:52;7.30;1.00
10278;DHT22;5184;51.376;7.148;2023-04-25T07:22:19;7.30;99.90
10278;DHT22;5184;51.376;7.148;2023-04-25T07:24:46;7.20;99.90
10278;DHT22;5184;51.376;7.148;2023-04-25T07:27:13;7.00;1.00
10278;DHT22;5184;51.376;7.148;2023-04-25T07:29:40;7.00;1.00
10278;DHT22;5184;51.376;7.148;2023-04-25T07:32:08;6.90;99.90
10278;DHT22;5184;51.376;7.148;2023-04-25T07:34:34;6.90;99.90
10278;DHT22;5184;51.376;7.148;2023-04-25T07:37:01;7.00;1.00
10278;DHT22;5184;51.376;7.148;2023-04-25T07:39:27;7.10;1.00
10278;DHT22;5184;51.376;7.148;2023-04-25T07:41:54;7.20;99.90
10278;DHT22;5184;51.376;7.148;2023-04-25T07:44:21;7.20;1.00
10278;DHT22;5184;51.376;7.148;2023-04-25T07:46:47;7.30;1.00
10278;DHT22;5184;51.376;7.148;2023-04-25T07:49:14;7.40;1.00
10278;DHT22;5184;51.376;7.148;2023-04-25T07:51:41;7.30;99.90
10278;DHT22;5184;51.376;7.148;2023-04-25T07:54:08;7.30;99.90
10278;DHT22;5184;51.376;7.148;2023-04-25T07:56:34;7.30;1.00
10278;DHT22;5184;51.376;7.148;2023-04-25T07:59:02;7.40;1.00
10278;DHT22;5184;51.376;7.148;2023-04-25T08:01:29;7.50;1.00
10278;DHT22;5184;51.376;7.148;2023-04-25T08:03:56;7.70;99.90
10278;DHT22;5184;51.376;7.148;2023-04-25T08:06:24;7.80;99.90
10278;DHT22;5184;51.376;7.148;2023-04-25T08:08:51;7.80;99.90
10278;DHT22;5184;51.376;7.148;2023-04-25T08:11:18;7.80;99.90
10278;DHT22;5184;51.376;7.148;2023-04-25T08:13:44;7.80;91.80
10278;DHT22;5184;51.376;7.148;2023-04-25T08:16:11;7.80;1.00
10278;DHT22;5184;51.376;7.148;2023-04-25T08:18:38;7.90;99.90
10278;DHT22;5184;51.376;7.148;2023-04-25T08:21:06;8.00;22.30
10278;DHT22;5184;51.376;7.148;2023-04-25T08:23:33;8.10;1.00
10278;DHT22;5184;51.376;7.148;2023-04-25T08:26:00;8.30;1.00
10278;DHT22;5184;51.376;7.148;2023-04-25T08:28:28;8.30;99.90
10278;DHT22;5184;51.376;7.148;2023-04-25T08:30:55;8.40;99.90
10278;DHT22;5184;51.376;7.148;2023-04-25T08:33:22;8.40;99.90
10278;DHT22;5184;51.376;7.148;2023-04-25T08:35:50;8.20;99.90
10278;DHT22;5184;51.376;7.148;2023-04-25T08:38:17;8.30;99.90
10278;DHT22;5184;51.376;7.148;2023-04-25T08:40:43;8.30;1.00
10278;DHT22;5184;51.376;7.148;2023-04-25T08:43:10;8.30;1.00
10278;DHT22;5184;51.376;7.148;2023-04-25T08:45:39;8.40;99.90
10278;DHT22;5184;51.376;7.148;2023-04-25T08:48:07;8.30;99.90
10278;DHT22;5184;51.376;7.148;2023-04-25T08:50:33;8.60;99.90
10278;DHT22;5184;51.376;7.148;2023-04-25T08:53:00;8.80;99.90
10278;DHT22;5184;51.376;7.148;2023-04-25T08:55:28;8.90;99.90
10278;DHT22;5184;51.376;7.148;2023-04-25T08:57:55;9.00;99.90
10278;DHT22;5184;51.376;7.148;2023-04-25T09:00:23;9.10;99.90
10278;DHT22;5184;51.376;7.148;2023-04-25T09:02:50;8.90;99.90
10278;DHT22;5184;51.376;7.148;2023-04-25T09:05:16;8.90;99.90
10278;DHT22;5184;51.376;7.148;2023-04-25T09:07:43;8.80;99.90
10278;DHT22;5184;51.376;7.148;2023-04-25T09:10:10;8.60;99.90
10278;DHT22;5184;51.376;7.148;2023-04-25T09:12:36;8.60;1.00
10278;DHT22;5184;51.376;7.148;2023-04-25T09:15:05;8.60;1.00
10278;DHT22;5184;51.376;7.148;2023-04-25T09:17:32;8.90;1.00
10278;DHT22;5184;51.376;7.148;2023-04-25T09:20:05;8.90;1.00
10278;DHT22;5184;51.376;7.148;2023-04-25T09:22:31;9.00;99.90
10278;DHT22;5184;51.376;7.148;2023-04-25T09:24:58;9.00;99.90
10278;DHT22;5184;51.376;7.148;2023-04-25T09:27:26;9.00;1.00
10278;DHT22;5184;51.376;7.148;2023-04-25T09:29:57;9.00;99.90
10278;DHT22;5184;51.376;7.148;2023-04-25T09:32:24;8.90;99.90
10278;DHT22;5184;51.376;7.148;2023-04-25T09:34:52;9.20;71.80
10278;DHT22;5184;51.376;7.148;2023-04-25T09:37:19;9.30;99.90
10278;DHT22;5184;51.376;7.148;2023-04-25T09:39:45;9.60;1.00
10278;DHT22;5184;51.376;7.148;2023-04-25T09:42:12;9.30;1.00
10278;DHT22;5184;51.376;7.148;2023-04-25T09:44:41;9.30;1.00
10278;DHT22;5184;51.376;7.148;2023-04-25T09:47:08;9.00;1.00
10278;DHT22;5184;51.376;7.148;2023-04-25T09:49:32;9.10;1.00
10278;DHT22;5184;51.376;7.148;2023-04-25T09:51:59;9.40;1.00
10278;DHT22;5184;51.376;7.148;2023-04-25T09:54:26;9.20;1.00
10278;DHT22;5184;51.376;7.148;2023-04-25T09:56:53;9.40;1.00
10278;DHT22;5184;51.376;7.148;2023-04-25T09:59:20;9.30;1.00
10278;DHT22;5184;51.376;7.148;2023-04-25T10:01:46;9.50;1.00
10278;DHT22;5184;51.376;7.148;2023-04-25T10:04:14;9.90;1.00
10278;DHT22;5184;51.376;7.148;2023-04-25T10:06:41;9.80;1.00
10278;DHT22;5184;51.376;7.148;2023-04-25T10:09:08;9.80;1.00
10278;DHT22;5184;51.376;7.148;2023-04-25T10:11:34;9.90;1.00
10278;DHT22;5184;51.376;7.148;2023-04-25T10:14:01;10.00;1.00
10278;DHT22;5184;51.376;7.148;2023-04-25T10:16:28;10.00;1.00
10278;DHT22;5184;51.376;7.148;2023-04-25T10:18:55;10.00;99.90
10278;DHT22;5184;51.376;7.148;2023-04-25T10:21:22;10.10;1.00
10278;DHT22;5184;51.376;7.148;2023-04-25T10:23:50;10.10;99.90
10278;DHT22;5184;51.376;7.148;2023-04-25T10:26:17;10.10;99.90
10278;DHT22;5184;51.376;7.148;2023-04-25T10:29:04;10.10;99.90
10278;DHT22;5184;51.376;7.148;2023-04-25T10:31:31;10.30;99.90
10278;DHT22;5184;51.376;7.148;2023-04-25T10:33:58;10.60;99.90
10278;DHT22;5184;51.376;7.148;2023-04-25T10:36:24;10.50;99.90
10278;DHT22;5184;51.376;7.148;2023-04-25T10:38:51;10.10;99.90
10278;DHT22;5184;51.376;7.148;2023-04-25T10:41:18;9.80;99.90
10278;DHT22;5184;51.376;7.148;2023-04-25T10:43:46;9.50;99.90
10278;DHT22;5184;51.376;7.148;2023-04-25T10:46:17;9.30;99.90
10278;DHT22;5184;51.376;7.148;2023-04-25T10:48:46;9.30;99.90
10278;DHT22;5184;51.376;7.148;2023-04-25T10:51:14;9.50;99.90
10278;DHT22;5184;51.376;7.148;2023-04-25T10:53:38;9.50;99.90
10278;DHT22;5184;51.376;7.148;2023-04-25T10:56:10;9.80;99.90
10278;DHT22;5184;51.376;7.148;2023-04-25T10:58:36;10.10;99.90
10278;DHT22;5184;51.376;7.148;2023-04-25T11:01:03;10.60;99.90
10278;DHT22;5184;51.376;7.148;2023-04-25T11:03:31;10.60;99.90
10278;DHT22;5184;51.376;7.148;2023-04-25T11:05:58;10.40;99.90
10278;DHT22;5184;51.376;7.148;2023-04-25T11:08:34;10.10;99.90
10278;DHT22;5184;51.376;7.148;2023-04-25T11:10:54;10.10;99.90
10278;DHT22;5184;51.376;7.148;2023-04-25T11:13:21;9.90;99.90
10278;DHT22;5184;51.376;7.148;2023-04-25T11:15:51;9.70;99.90
10278;DHT22;5184;51.376;7.148;2023-04-25T11:18:16;9.60;99.90
10278;DHT22;5184;51.376;7.148;2023-04-25T11:20:43;9.50;99.90
10278;DHT22;5184;51.376;7.148;2023-04-25T11:23:09;9.50;99.90
10278;DHT22;5184;51.376;7.148;2023-04-25T11:25:37;9.30;1.00
10278;DHT22;5184;51.376;7.148;2023-04-25T11:28:04;9.30;1.00
10278;DHT22;5184;51.376;7.148;2023-04-25T11:30:31;9.20;1.00
10278;DHT22;5184;51.376;7.148;2023-04-25T11:32:59;9.10;14.30
10278;DHT22;5184;51.376;7.148;2023-04-25T11:35:26;9.00;1.00
10278;DHT22;5184;51.376;7.148;2023-04-25T11:37:53;9.00;1.00
10278;DHT22;5184;51.376;7.148;2023-04-25T11:40:21;9.10;1.00
10278;DHT22;5184;51.376;7.148;2023-04-25T11:42:48;9.30;1.00
10278;DHT22;5184;51.376;7.148;2023-04-25T11:45:16;9.50;1.00
10278;DHT22;5184;51.376;7.148;2023-04-25T11:47:43;9.60;1.00
10278;DHT22;5184;51.376;7.148;2023-04-25T11:50:09;9.70;1.00
10278;DHT22;5184;51.376;7.148;2023-04-25T11:52:37;9.80;1.00
10278;DHT22;5184;51.376;7.148;2023-04-25T11:55:04;9.90;99.90
10278;DHT22;5184;51.376;7.148;2023-04-25T11:57:31;9.70;1.00
10278;DHT22;5184;51.376;7.148;2023-04-25T12:00:04;9.30;1.00
10278;DHT22;5184;51.376;7.148;2023-04-25T12:02:24;9.30;1.00
10278;DHT22;5184;51.376;7.148;2023-04-25T12:04:51;9.20;1.00
10278;DHT22;5184;51.376;7.148;2023-04-25T12:07:17;9.40;99.90
10278;DHT22;5184;51.376;7.148;2023-04-25T12:09:44;9.60;99.90
10278;DHT22;5184;51.376;7.148;2023-04-25T12:12:10;9.80;99.90
10278;DHT22;5184;51.376;7.148;2023-04-25T12:14:37;10.20;99.90
10278;DHT22;5184;51.376;7.148;2023-04-25T12:17:04;10.80;99.90
10278;DHT22;5184;51.376;7.148;2023-04-25T12:19:34;10.80;1.00
10278;DHT22;5184;51.376;7.148;2023-04-25T12:22:02;10.70;1.00
10278;DHT22;5184;51.376;7.148;2023-04-25T12:24:28;9.60;98.50
10278;DHT22;5184;51.376;7.148;2023-04-25T12:27:00;9.30;99.90
10278;DHT22;5184;51.376;7.148;2023-04-25T12:29:27;9.40;99.90
10278;DHT22;5184;51.376;7.148;2023-04-25T12:31:53;9.30;99.90
10278;DHT22;5184;51.376;7.148;2023-04-25T12:34:20;9.30;99.90
10278;DHT22;5184;51.376;7.148;2023-04-25T12:36:46;9.10;99.90
10278;DHT22;5184;51.376;7.148;2023-04-25T12:39:16;9.20;99.90
10278;DHT22;5184;51.376;7.148;2023-04-25T12:41:43;9.00;99.90
10278;DHT22;5184;51.376;7.148;2023-04-25T12:44:09;8.90;99.90
10278;DHT22;5184;51.376;7.148;2023-04-25T12:46:36;8.80;99.90
10278;DHT22;5184;51.376;7.148;2023-04-25T12:49:03;8.80;99.90
10278;DHT22;5184;51.376;7.148;2023-04-25T12:51:29;8.90;99.90
10278;DHT22;5184;51.376;7.148;2023-04-25T12:53:55;8.80;99.90
10278;DHT22;5184;51.376;7.148;2023-04-25T12:56:22;8.80;99.90
10278;DHT22;5184;51.376;7.148;2023-04-25T12:58:49;8.90;99.90
10278;DHT22;5184;51.376;7.148;2023-04-25T13:01:16;9.20;99.90
10278;DHT22;5184;51.376;7.148;2023-04-25T13:03:43;9.50;99.90
10278;DHT22;5184;51.376;7.148;2023-04-25T13:06:11;9.80;44.90
10278;DHT22;5184;51.376;7.148;2023-04-25T13:08:38;10.00;1.00
10278;DHT22;5184;51.376;7.148;2023-04-25T13:11:05;10.10;1.00
10278;DHT22;5184;51.376;7.148;2023-04-25T13:13:33;10.30;1.00
10278;DHT22;5184;51.376;7.148;2023-04-25T13:16:01;10.30;1.00
10278;DHT22;5184;51.376;7.148;2023-04-25T13:18:27;10.50;1.00
10278;DHT22;5184;51.376;7.148;2023-04-25T13:20:53;10.80;1.00
10278;DHT22;5184;51.376;7.148;2023-04-25T13:23:21;11.10;1.00
10278;DHT22;5184;51.376;7.148;2023-04-25T13:25:48;11.50;1.00
10278;DHT22;5184;51.376;7.148;2023-04-25T13:28:16;11.20;1.00
10278;DHT22;5184;51.376;7.148;2023-04-25T13:30:43;11.00;1.00
10278;DHT22;5184;51.376;7.148;2023-04-25T13:33:09;10.90;1.00
10278;DHT22;5184;51.376;7.148;2023-04-25T13:35:37;10.50;1.00
10278;DHT22;5184;51.376;7.148;2023-04-25T13:38:03;10.50;1.00
10278;DHT22;5184;51.376;7.148;2023-04-25T13:40:30;10.30;1.00
10278;DHT22;5184;51.376;7.148;2023-04-25T13:42:57;10.10;89.90
10278;DHT22;5184;51.376;7.148;2023-04-25T13:45:23;9.90;89.70
10278;DHT22;5184;51.376;7.148;2023-04-25T13:47:51;9.30;99.90
10278;DHT22;5184;51.376;7.148;2023-04-25T13:50:18;9.20;99.90
10278;DHT22;5184;51.376;7.148;2023-04-25T13:52:45;9.10;99.90
10278;DHT22;5184;51.376;7.148;2023-04-25T13:55:13;9.00;1.00
10278;DHT22;5184;51.376;7.148;2023-04-25T13:57:40;9.10;9.60
10278;DHT22;5184;51.376;7.148;2023-04-25T14:00:08;9.10;7.10
10278;DHT22;5184;51.376;7.148;2023-04-25T14:02:36;9.30;1.00
10278;DHT22;5184;51.376;7.148;2023-04-25T14:05:04;9.70;1.00
10278;DHT22;5184;51.376;7.148;2023-04-25T14:07:30;9.70;1.00
10278;DHT22;5184;51.376;7.148;2023-04-25T14:09:57;10.40;1.00
10278;DHT22;5184;51.376;7.148;2023-04-25T14:12:25;10.60;1.00
10278;DHT22;5184;51.376;7.148;2023-04-25T14:14:51;10.60;1.00
10278;DHT22;5184;51.376;7.148;2023-04-25T14:17:18;11.00;99.90
10278;DHT22;5184;51.376;7.148;2023-04-25T14:19:44;11.10;99.90
10278;DHT22;5184;51.376;7.148;2023-04-25T14:22:11;11.20;56.80
10278;DHT22;5184;51.376;7.148;2023-04-25T14:24:38;11.30;51.30
10278;DHT22;5184;51.376;7.148;2023-04-25T14:27:05;11.70;1.00
10278;DHT22;5184;51.376;7.148;2023-04-25T14:29:32;11.80;1.00
10278;DHT22;5184;51.376;7.148;2023-04-25T14:32:00;11.50;1.00
10278;DHT22;5184;51.376;7.148;2023-04-25T14:34:27;11.50;1.00
10278;DHT22;5184;51.376;7.148;2023-04-25T14:36:54;11.70;1.00
10278;DHT22;5184;51.376;7.148;2023-04-25T14:39:22;12.40;1.00
10278;DHT22;5184;51.376;7.148;2023-04-25T14:41:48;12.30;1.00
10278;DHT22;5184;51.376;7.148;2023-04-25T14:44:15;12.70;1.00
10278;DHT22;5184;51.376;7.148;2023-04-25T14:46:42;13.20;1.00
10278;DHT22;5184;51.376;7.148;2023-04-25T14:49:08;13.00;1.00
10278;DHT22;5184;51.376;7.148;2023-04-25T14:51:35;12.90;1.00
10278;DHT22;5184;51.376;7.148;2023-04-25T14:54:02;11.70;1.00
10278;DHT22;5184;51.376;7.148;2023-04-25T14:56:29;11.60;1.00
10278;DHT22;5184;51.376;7.148;2023-04-25T14:58:56;11.20;1.00
10278;DHT22;5184;51.376;7.148;2023-04-25T15:01:23;11.20;1.00
10278;DHT22;5184;51.376;7.148;2023-04-25T15:03:51;11.00;1.00
10278;DHT22;5184;51.376;7.148;2023-04-25T15:06:18;10.80;1.00
10278;DHT22;5184;51.376;7.148;2023-04-25T15:08:46;10.70;1.00
10278;DHT22;5184;51.376;7.148;2023-04-25T15:11:12;10.70;1.00
10278;DHT22;5184;51.376;7.148;2023-04-25T15:13:39;10.70;1.00
10278;DHT22;5184;51.376;7.148;2023-04-25T15:16:05;10.70;1.00
10278;DHT22;5184;51.376;7.148;2023-04-25T15:18:32;10.70;1.00
10278;DHT22;5184;51.376;7.148;2023-04-25T15:20:59;10.80;1.00
10278;DHT22;5184;51.376;7.148;2023-04-25T15:23:26;11.70;1.00
10278;DHT22;5184;51.376;7.148;2023-04-25T15:25:52;11.70;1.00
10278;DHT22;5184;51.376;7.148;2023-04-25T15:28:19;12.10;1.00
10278;DHT22;5184;51.376;7.148;2023-04-25T15:30:46;12.70;1.00
10278;DHT22;5184;51.376;7.148;2023-04-25T15:33:14;13.10;1.00
10278;DHT22;5184;51.376;7.148;2023-04-25T15:35:41;13.40;1.00
10278;DHT22;5184;51.376;7.148;2023-04-25T15:38:09;14.20;1.00
10278;DHT22;5184;51.376;7.148;2023-04-25T15:40:36;14.20;1.00
10278;DHT22;5184;51.376;7.148;2023-04-25T15:43:03;14.40;1.00
10278;DHT22;5184;51.376;7.148;2023-04-25T15:45:31;14.60;1.00
10278;DHT22;5184;51.376;7.148;2023-04-25T15:47:57;14.60;1.00
10278;DHT22;5184;51.376;7.148;2023-04-25T15:50:24;14.60;1.00
10278;DHT22;5184;51.376;7.148;2023-04-25T15:52:50;14.70;1.00
10278;DHT22;5184;51.376;7.148;2023-04-25T15:55:18;14.80;1.00
10278;DHT22;5184;51.376;7.148;2023-04-25T15:57:44;15.30;1.00
10278;DHT22;5184;51.376;7.148;2023-04-25T16:00:11;15.00;1.00
10278;DHT22;5184;51.376;7.148;2023-04-25T16:02:38;14.70;1.00